Time;durP1;ratioP1;P1;durP2;ratioP2;P2;SDS_P1;SDS_P2;PMS_P1;PMS_P2;Temp;Humidity;BMP_temperature;BMP_pressure;BME280_temperature;BME280_humidity;BME280_pressure;Samples;Min_cycle;Max_cycle;Signal;HPM_P1;HPM_P2
2022/05/24 00:01:01;;;;;;;5.07;1.77;;;13.80;99.90;;;;;;4657350;30;20060;-82
2022/05/24 00:03:35;;;;;;;5.97;3.35;;;13.80;99.90;;;;;;4697127;30;20061;-83
2022/05/24 00:06:12;;;;;;;3.38;2.83;;;13.90;99.90;;;;;;4698928;30;20050;-82
2022/05/24 00:08:42;;;;;;;2.80;1.83;;;13.80;99.90;;;;;;4698136;30;20821;-82
2022/05/24 00:11:11;;;;;;;1.40;1.30;;;13.80;99.90;;;;;;4697932;30;20065;-82
2022/05/24 00:13:38;;;;;;;3.88;1.45;;;13.80;99.90;;;;;;4703308;30;20561;-82
2022/05/24 00:16:13;;;;;;;1.95;1.63;;;13.90;99.90;;;;;;4681757;30;20057;-82
2022/05/24 00:18:41;;;;;;;2.35;1.98;;;13.90;99.90;;;;;;4682726;30;20065;-82
2022/05/24 00:21:09;;;;;;;6.55;1.80;;;13.90;99.90;;;;;;4697931;30;20060;-82
2022/05/24 00:23:37;;;;;;;2.13;1.95;;;13.90;99.90;;;;;;4698931;30;20062;-83
2022/05/24 00:26:09;;;;;;;2.22;2.08;;;13.90;99.90;;;;;;4698761;30;20058;-83
2022/05/24 00:28:37;;;;;;;1.90;1.60;;;13.90;99.90;;;;;;4698254;30;20502;-82
2022/05/24 00:31:06;;;;;;;3.60;2.13;;;13.90;99.90;;;;;;4682911;30;20073;-82
2022/05/24 00:33:34;;;;;;;2.65;2.45;;;13.90;99.90;;;;;;4682466;30;20065;-82
2022/05/24 00:36:03;;;;;;;1.55;1.45;;;13.90;99.90;;;;;;4700599;30;20394;-81
2022/05/24 00:38:36;;;;;;;1.65;1.50;;;13.90;99.90;;;;;;4699024;30;20057;-82
2022/05/24 00:41:17;;;;;;;2.72;1.85;;;13.90;99.90;;;;;;4684398;30;20050;-82
2022/05/24 00:43:49;;;;;;;5.50;3.50;;;13.90;99.90;;;;;;4694077;30;20064;-82
2022/05/24 00:46:42;;;;;;;3.50;1.92;;;13.90;99.90;;;;;;4697946;30;20301;-82
2022/05/24 00:49:31;;;;;;;1.73;1.60;;;13.90;99.90;;;;;;4678342;30;20054;-81
2022/05/24 00:52:12;;;;;;;2.05;1.75;;;13.90;99.90;;;;;;4697989;30;20386;-82
2022/05/24 00:54:42;;;;;;;1.73;1.63;;;13.90;99.90;;;;;;4698761;30;20050;-82
2022/05/24 00:57:25;;;;;;;1.75;1.60;;;14.00;99.90;;;;;;4698912;30;20057;-82
2022/05/24 01:00:06;;;;;;;2.20;1.80;;;14.00;99.90;;;;;;4700212;30;20517;-82
2022/05/24 01:02:36;;;;;;;19.40;2.25;;;14.00;99.90;;;;;;4699518;30;20058;-82
2022/05/24 01:05:07;;;;;;;3.88;1.55;;;14.00;99.90;;;;;;4698872;30;20053;-82
2022/05/24 01:07:36;;;;;;;1.88;1.33;;;14.00;99.90;;;;;;4699793;30;20082;-82
2022/05/24 01:10:19;;;;;;;3.13;1.55;;;14.00;99.90;;;;;;4698904;30;20074;-82
2022/05/24 01:12:54;;;;;;;1.90;1.38;;;14.00;99.90;;;;;;4701616;30;20049;-82
2022/05/24 01:15:28;;;;;;;4.13;2.08;;;14.00;99.90;;;;;;4702836;30;20061;-82
2022/05/24 01:17:58;;;;;;;3.95;1.50;;;14.00;99.90;;;;;;4689022;30;20402;-82
2022/05/24 01:20:27;;;;;;;2.78;1.90;;;14.10;99.90;;;;;;4686363;30;20081;-81
2022/05/24 01:23:16;;;;;;;2.63;2.25;;;14.10;99.90;;;;;;4702857;30;20060;-82
2022/05/24 01:25:58;;;;;;;8.52;1.83;;;14.10;99.90;;;;;;4706442;30;20045;-82
2022/05/24 01:28:38;;;;;;;6.80;3.00;;;14.10;99.90;;;;;;4702068;30;20050;-81
2022/05/24 01:31:10;;;;;;;14.57;4.20;;;14.10;99.90;;;;;;4700612;30;20533;-82
2022/05/24 01:36:28;;;;;;;5.55;2.85;;;14.20;99.90;;;;;;4702124;30;20061;-80
2022/05/24 01:39:04;;;;;;;5.53;2.80;;;14.10;99.90;;;;;;4702678;30;20407;-81
2022/05/24 01:41:48;;;;;;;2.15;2.03;;;14.20;99.90;;;;;;4686537;30;20533;-81
2022/05/24 01:44:22;;;;;;;2.17;1.98;;;14.20;99.90;;;;;;4695930;30;20787;-82
2022/05/24 01:47:29;;;;;;;2.25;1.73;;;14.20;99.90;;;;;;4684719;30;20057;-81
2022/05/24 01:50:01;;;;;;;2.47;1.90;;;14.20;99.90;;;;;;4699249;30;20053;-81
2022/05/24 01:52:52;;;;;;;2.60;2.28;;;14.20;99.90;;;;;;4701237;30;20690;-82
2022/05/24 01:55:29;;;;;;;4.57;2.03;;;14.20;99.90;;;;;;4669400;30;20061;-82
2022/05/24 01:58:01;;;;;;;3.72;1.90;;;14.20;99.90;;;;;;4694864;30;20058;-82
2022/05/24 02:00:29;;;;;;;2.17;1.92;;;14.20;99.90;;;;;;4700981;30;20049;-82
2022/05/24 02:02:57;;;;;;;3.35;1.95;;;14.20;99.90;;;;;;4701887;30;20065;-81
2022/05/24 02:05:32;;;;;;;2.13;1.70;;;14.20;99.90;;;;;;4685865;30;20522;-81
2022/05/24 02:08:01;;;;;;;3.35;2.08;;;14.20;99.90;;;;;;4701256;30;20114;-82
2022/05/24 02:10:34;;;;;;;1.90;1.80;;;14.20;99.90;;;;;;4700844;30;20045;-83
2022/05/24 02:13:03;;;;;;;2.58;2.38;;;14.20;99.90;;;;;;4700642;30;20061;-82
2022/05/24 02:15:38;;;;;;;1.95;1.60;;;14.20;99.90;;;;;;4700034;30;20499;-81
2022/05/24 02:18:08;;;;;;;3.17;1.67;;;14.20;99.90;;;;;;4670903;30;20050;-83
2022/05/24 02:20:39;;;;;;;2.90;2.30;;;14.20;99.90;;;;;;4700879;30;20054;-82
2022/05/24 02:23:11;;;;;;;2.38;2.10;;;14.20;99.90;;;;;;4670911;30;20062;-82
2022/05/24 02:25:52;;;;;;;2.45;2.25;;;14.20;99.90;;;;;;4700739;30;20070;-83
2022/05/24 02:28:24;;;;;;;2.10;1.92;;;14.20;99.90;;;;;;4685068;30;20061;-82
2022/05/24 02:31:03;;;;;;;2.55;2.35;;;14.20;99.90;;;;;;4699653;30;20061;-82
2022/05/24 02:33:32;;;;;;;3.78;2.45;;;14.20;99.90;;;;;;4685349;30;20072;-81
2022/05/24 02:36:00;;;;;;;6.03;2.50;;;14.20;99.90;;;;;;4654392;30;20058;-82
2022/05/24 02:38:28;;;;;;;2.75;2.13;;;14.20;99.90;;;;;;4699830;30;20058;-81
2022/05/24 02:43:43;;;;;;;6.72;4.00;;;14.20;99.90;;;;;;4700682;30;20064;-83
2022/05/24 02:46:19;;;;;;;5.97;2.20;;;14.20;99.90;;;;;;4684231;30;20053;-81
2022/05/24 02:48:47;;;;;;;1.67;1.48;;;14.20;99.90;;;;;;4694986;30;20053;-82
2022/05/24 02:51:16;;;;;;;1.73;1.45;;;14.20;99.90;;;;;;4667972;30;20070;-82
2022/05/24 02:53:45;;;;;;;2.05;1.95;;;14.20;99.90;;;;;;4668054;30;20053;-83
2022/05/24 02:56:14;;;;;;;5.28;1.95;;;14.20;99.90;;;;;;4698347;30;20057;-82
2022/05/24 02:58:42;;;;;;;2.83;2.10;;;14.20;99.90;;;;;;4700012;30;20054;-81
2022/05/24 03:01:18;;;;;;;6.05;3.22;;;14.20;99.90;;;;;;4669653;30;20053;-82
2022/05/24 03:03:47;;;;;;;2.55;2.08;;;14.20;99.90;;;;;;4670062;30;20064;-83
2022/05/24 03:06:15;;;;;;;3.72;1.55;;;14.20;99.90;;;;;;4698556;30;20068;-82
2022/05/24 03:14:14;;;;;;;10.90;1.85;;;14.20;99.90;;;;;;4684578;30;20066;-82
2022/05/24 03:14:20;;;;;;;5.47;2.50;;;14.20;99.90;;;;;;4681967;30;20050;-82
2022/05/24 03:16:52;;;;;;;2.30;2.10;;;14.20;99.90;;;;;;4666537;30;20046;-82
2022/05/24 03:19:54;;;;;;;6.10;3.03;;;14.20;99.90;;;;;;4682933;30;20065;-82
2022/05/24 03:24:13;;;;;;;2.78;2.38;;;14.20;99.90;;;;;;4681440;30;20049;-82
2022/05/24 03:28:59;;;;;;;2.70;2.00;;;14.20;99.90;;;;;;4680935;30;20053;-82
2022/05/24 03:33:48;;;;;;;1.92;1.83;;;14.10;99.90;;;;;;4688518;30;20044;-82
2022/05/24 03:37:57;;;;;;;3.15;2.35;;;14.10;99.90;;;;;;4696829;30;20053;-82
2022/05/24 03:41:33;;;;;;;2.13;1.90;;;14.20;99.90;;;;;;4696048;30;20034;-82
2022/05/24 03:44:03;;;;;;;5.57;2.00;;;14.20;99.90;;;;;;4683314;30;20593;-82
2022/05/24 03:47:07;;;;;;;2.53;2.03;;;14.20;99.90;;;;;;4683033;30;20057;-82
2022/05/24 03:49:35;;;;;;;2.95;2.10;;;14.20;99.90;;;;;;4682716;30;20068;-82
2022/05/24 03:52:03;;;;;;;1.85;1.70;;;14.20;99.90;;;;;;4698986;30;20057;-82
2022/05/24 03:55:09;;;;;;;1.92;1.73;;;14.20;99.90;;;;;;4697010;30;20064;-82
2022/05/24 04:13:59;;;;;;;2.65;1.75;;;14.20;99.90;;;;;;4663009;30;20061;-82
2022/05/24 04:32:31;;;;;;;4.82;1.92;;;14.30;99.90;;;;;;4666816;30;20931;-83
2022/05/24 04:35:27;;;;;;;5.60;1.92;;;14.30;99.90;;;;;;4661760;30;20043;-82
2022/05/24 04:37:54;;;;;;;3.15;2.10;;;14.30;99.90;;;;;;4662306;30;20055;-83
2022/05/24 04:42:18;;;;;;;2.67;2.47;;;14.30;99.90;;;;;;4670118;30;20058;-83
2022/05/24 04:43:11;;;;;;;1.98;1.77;;;14.40;99.90;;;;;;4681210;30;20046;-82
2022/05/24 04:45:47;;;;;;;2.72;2.05;;;14.30;99.90;;;;;;4680339;30;20061;-82
2022/05/24 04:48:17;;;;;;;2.30;1.75;;;14.30;99.90;;;;;;4678986;30;20062;-82
2022/05/24 04:50:44;;;;;;;2.47;2.28;;;14.30;99.90;;;;;;4680053;30;20679;-80
2022/05/24 04:53:16;;;;;;;2.45;1.83;;;14.30;99.90;;;;;;4679248;30;20050;-81
2022/05/24 04:55:47;;;;;;;4.13;2.33;;;14.30;99.90;;;;;;4680749;30;20054;-82
2022/05/24 04:58:16;;;;;;;3.33;3.03;;;14.40;99.90;;;;;;4696765;30;20057;-82
2022/05/24 05:00:46;;;;;;;2.33;2.13;;;14.30;99.90;;;;;;4697607;30;20046;-81
2022/05/24 05:03:20;;;;;;;4.35;2.70;;;14.40;99.90;;;;;;4698208;30;20483;-81
2022/05/24 05:05:51;;;;;;;3.65;2.15;;;14.30;99.90;;;;;;4697759;30;20511;-81
2022/05/24 05:09:13;;;;;;;4.25;2.25;;;14.40;99.90;;;;;;4697240;30;20049;-81
2022/05/24 05:13:49;;;;;;;1.80;1.63;;;14.40;99.90;;;;;;4697436;30;20050;-88
2022/05/24 05:18:30;;;;;;;2.60;2.03;;;14.40;99.90;;;;;;4697522;30;20046;-82
2022/05/24 05:27:08;;;;;;;2.72;2.53;;;14.40;99.90;;;;;;4697212;30;20054;-80
2022/05/24 05:31:38;;;;;;;;;;;;;;;;;;;;;
2022/05/24 05:38:56;;;;;;;3.85;2.05;;;14.40;99.90;;;;;;4691850;30;20510;-81
2022/05/24 05:41:29;;;;;;;2.28;2.00;;;14.40;99.90;;;;;;4695082;30;20045;-82
2022/05/24 05:43:59;;;;;;;5.90;2.95;;;14.40;99.90;;;;;;4682315;30;20080;-80
2022/05/24 05:47:07;;;;;;;2.03;1.83;;;14.40;99.90;;;;;;4685768;30;20074;-81
2022/05/24 05:49:35;;;;;;;3.38;2.20;;;14.40;99.90;;;;;;4680716;30;20058;-80
2022/05/24 05:52:03;;;;;;;5.00;2.55;;;14.40;99.90;;;;;;4697861;30;20072;-80
2022/05/24 05:54:31;;;;;;;1.85;1.60;;;14.40;99.90;;;;;;4695399;30;20058;-81
2022/05/24 05:57:05;;;;;;;3.17;2.88;;;14.40;99.90;;;;;;4681431;30;20062;-81
2022/05/24 05:59:33;;;;;;;5.53;1.58;;;14.50;99.90;;;;;;4685158;30;20061;-80
2022/05/24 06:02:04;;;;;;;2.42;2.20;;;14.50;99.90;;;;;;4709057;30;20053;-81
2022/05/24 06:04:32;;;;;;;8.52;4.90;;;14.40;99.90;;;;;;4697301;30;20057;-81
2022/05/24 06:07:00;;;;;;;3.08;1.95;;;14.40;99.90;;;;;;4698634;30;20054;-80
2022/05/24 06:09:28;;;;;;;1.92;1.73;;;14.30;99.90;;;;;;4682867;30;20057;-81
2022/05/24 06:12:06;;;;;;;2.08;1.75;;;14.30;99.90;;;;;;4698733;30;20052;-86
2022/05/24 06:14:35;;;;;;;10.43;2.13;;;14.10;99.90;;;;;;4680056;30;20041;-88
2022/05/24 06:17:52;;;;;;;3.40;2.08;;;14.20;99.90;;;;;;4679692;30;20045;-85
2022/05/24 06:22:53;;;;;;;;;;;;;;;;;;;;;
2022/05/24 06:55:21;;;;;;;2.13;1.77;;;14.60;99.90;;;;;;5223896;24;20053;-85
2022/05/24 06:57:53;;;;;;;1.95;1.77;;;14.60;99.90;;;;;;4686736;30;20061;-85
2022/05/24 07:06:16;;;;;;;3.00;1.83;;;14.60;99.90;;;;;;4706672;24;21513;-86
2022/05/24 07:08:50;;;;;;;1.90;1.80;;;14.40;99.90;;;;;;4718888;25;20052;-85
2022/05/24 07:11:21;;;;;;;1.88;1.60;;;14.50;99.90;;;;;;4715196;30;20405;-82
2022/05/24 07:13:54;;;;;;;2.83;2.08;;;14.60;99.90;;;;;;4717113;30;20608;-82
2022/05/24 07:16:26;;;;;;;3.25;2.10;;;14.60;99.90;;;;;;4716791;30;20049;-82
2022/05/24 07:18:54;;;;;;;2.33;2.03;;;14.70;99.90;;;;;;4730875;30;20066;-83
2022/05/24 07:21:26;;;;;;;2.88;1.67;;;14.70;99.90;;;;;;4734892;30;20044;-85
2022/05/24 07:24:10;;;;;;;4.88;1.88;;;14.70;99.90;;;;;;4709868;30;20057;-85
2022/05/24 07:26:45;;;;;;;6.18;2.17;;;14.60;99.90;;;;;;4692103;30;20105;-85
2022/05/24 07:29:22;;;;;;;2.35;1.60;;;14.70;99.90;;;;;;4679206;30;20053;-84
2022/05/24 07:32:00;;;;;;;1.50;1.40;;;14.70;99.90;;;;;;4702338;30;20596;-86
2022/05/24 07:34:40;;;;;;;4.22;1.95;;;14.70;99.90;;;;;;4684959;30;20770;-86
2022/05/24 07:37:29;;;;;;;2.88;1.40;;;14.60;99.90;;;;;;4699328;30;20045;-87
2022/05/24 07:46:05;;;;;;;3.83;2.65;;;14.70;99.90;;;;;;4693492;30;20052;-84
2022/05/24 07:48:34;;;;;;;2.38;1.75;;;14.70;99.90;;;;;;4708758;30;20057;-85
2022/05/24 07:51:09;;;;;;;2.42;2.22;;;14.70;99.90;;;;;;4697083;30;20056;-85
2022/05/24 07:54:19;;;;;;;6.70;1.95;;;14.70;99.90;;;;;;4713690;30;20072;-86
2022/05/24 07:56:55;;;;;;;4.75;2.72;;;14.60;99.90;;;;;;4715036;30;20738;-85
2022/05/24 07:59:36;;;;;;;2.13;1.77;;;14.70;99.90;;;;;;4705261;30;20068;-85
2022/05/24 08:05:54;;;;;;;4.03;2.95;;;14.60;99.90;;;;;;4674947;30;20042;-85
2022/05/24 08:08:46;;;;;;;4.57;1.77;;;14.60;99.90;;;;;;4678118;30;22660;-83
2022/05/24 08:11:29;;;;;;;2.80;1.52;;;14.50;99.90;;;;;;4692521;30;20075;-86
2022/05/24 08:13:59;;;;;;;3.65;2.53;;;14.50;99.90;;;;;;4677741;30;20054;-78
2022/05/24 08:16:31;;;;;;;4.60;2.47;;;14.50;99.90;;;;;;4678287;30;20069;-84
2022/05/24 08:19:04;;;;;;;4.63;2.47;;;14.50;99.90;;;;;;4673562;30;20065;-85
2022/05/24 08:21:55;;;;;;;4.50;1.70;;;14.60;99.90;;;;;;4681746;30;20849;-87
2022/05/24 08:25:21;;;;;;;2.15;2.00;;;14.50;99.90;;;;;;4678841;30;20053;-86
2022/05/24 08:31:47;;;;;;;3.83;2.15;;;14.40;99.90;;;;;;4657275;30;20069;-87
2022/05/24 08:34:26;;;;;;;2.47;2.28;;;14.30;99.90;;;;;;4665278;30;20072;-87
2022/05/24 08:37:23;;;;;;;3.23;2.47;;;14.30;99.90;;;;;;4680385;30;20050;-89
2022/05/24 08:43:44;;;;;;;4.68;2.67;;;14.20;99.90;;;;;;4668856;28;20392;-80
2022/05/24 08:49:50;;;;;;;2.03;1.75;;;14.10;99.90;;;;;;4686446;30;20135;-85
2022/05/24 08:52:28;;;;;;;7.63;2.30;;;14.00;99.90;;;;;;4677017;30;20062;-81
2022/05/24 08:55:26;;;;;;;5.47;2.00;;;13.90;99.90;;;;;;4696153;30;20061;-84
2022/05/24 08:58:24;;;;;;;2.08;1.85;;;13.80;99.90;;;;;;4696879;30;20041;-86
2022/05/24 09:01:35;;;;;;;3.15;2.70;;;13.80;99.90;;;;;;4699543;30;20068;-85
2022/05/24 09:08:17;;;;;;;1.40;1.30;;;13.60;99.90;;;;;;4704951;24;20069;-87
2022/05/24 09:11:56;;;;;;;;;;;;;;;;;;;;;
2022/05/24 09:15:34;;;;;;;2.30;2.00;;;13.70;99.90;;;;;;4734330;30;20048;-86
2022/05/24 09:18:47;;;;;;;2.88;1.75;;;13.70;99.90;;;;;;4711668;30;20076;-83
2022/05/24 09:21:29;;;;;;;3.47;2.15;;;13.70;99.90;;;;;;4715641;30;20055;-84
2022/05/24 09:24:17;;;;;;;1.98;1.88;;;13.70;99.90;;;;;;4713246;30;20053;-78
2022/05/24 09:27:13;;;;;;;3.30;2.28;;;13.60;99.90;;;;;;4709246;30;20394;-79
2022/05/24 09:29:59;;;;;;;2.97;2.78;;;13.60;99.90;;;;;;4727247;30;20057;-81
2022/05/24 09:32:39;;;;;;;2.55;2.35;;;13.60;99.90;;;;;;4712814;30;20063;-83
2022/05/24 09:35:18;;;;;;;2.70;2.25;;;13.60;99.90;;;;;;4720427;30;20059;-84
2022/05/24 09:38:03;;;;;;;3.25;2.35;;;13.60;99.90;;;;;;4717133;30;20048;-81
2022/05/24 09:41:11;;;;;;;2.97;2.22;;;13.50;99.90;;;;;;4719476;30;20045;-87
2022/05/24 09:44:03;;;;;;;6.32;4.00;;;13.50;99.90;;;;;;4693296;30;20059;-82
2022/05/24 09:46:47;;;;;;;2.67;2.47;;;13.50;99.90;;;;;;4706527;30;20071;-83
2022/05/24 09:49:36;;;;;;;3.13;1.98;;;13.50;99.90;;;;;;4705746;30;20524;-82
2022/05/24 09:52:18;;;;;;;2.47;2.28;;;13.50;99.90;;;;;;4702675;30;20053;-83
2022/05/24 09:55:00;;;;;;;4.45;2.85;;;13.60;99.90;;;;;;4719223;30;20057;-84
2022/05/24 09:57:46;;;;;;;3.80;2.83;;;13.50;99.90;;;;;;4706909;30;20049;-80
2022/05/24 10:00:23;;;;;;;3.05;2.85;;;13.50;99.90;;;;;;4691460;30;20532;-81
2022/05/24 10:03:09;;;;;;;2.80;1.98;;;13.60;99.90;;;;;;4691706;30;20057;-80
2022/05/24 10:05:39;;;;;;;1.92;1.67;;;13.70;99.90;;;;;;4735947;30;20080;-80
2022/05/24 10:08:19;;;;;;;6.10;2.55;;;13.70;99.90;;;;;;4693506;30;20075;-80
2022/05/24 10:10:57;;;;;;;3.70;2.00;;;13.70;99.90;;;;;;4736540;30;20052;-80
2022/05/24 10:14:04;;;;;;;1.80;1.67;;;13.80;99.90;;;;;;4705732;30;20053;-80
2022/05/24 10:17:01;;;;;;;3.10;2.47;;;13.80;99.90;;;;;;4680030;30;20060;-81
2022/05/24 10:19:55;;;;;;;3.38;1.80;;;13.80;99.90;;;;;;4705486;30;20053;-82
2022/05/24 10:22:50;;;;;;;2.28;1.73;;;13.80;99.90;;;;;;4705589;30;20532;-83
2022/05/24 10:25:29;;;;;;;1.92;1.83;;;13.90;99.90;;;;;;4705356;30;20056;-82
2022/05/24 10:28:28;;;;;;;3.95;2.25;;;13.90;99.90;;;;;;4704233;30;20068;-83
2022/05/24 10:31:20;;;;;;;2.10;2.00;;;13.90;99.90;;;;;;4706263;30;20134;-83
2022/05/24 10:39:55;;;;;;;4.70;1.85;;;13.90;99.90;;;;;;4702039;30;20068;-83
2022/05/24 10:43:52;;;;;;;1.98;1.88;;;13.90;99.90;;;;;;4679825;30;20053;-83
2022/05/24 10:46:49;;;;;;;5.35;2.42;;;13.90;99.90;;;;;;4701508;30;20057;-81
2022/05/24 10:49:36;;;;;;;2.95;2.00;;;14.00;99.90;;;;;;4702013;30;20066;-83
2022/05/24 10:52:33;;;;;;;1.92;1.83;;;14.10;99.90;;;;;;4717075;30;20061;-81
2022/05/24 10:55:36;;;;;;;8.00;2.08;;;14.00;99.90;;;;;;4675245;30;20060;-83
2022/05/24 10:58:32;;;;;;;2.97;1.77;;;14.00;99.90;;;;;;4701905;30;20064;-84
2022/05/24 11:06:29;;;;;;;1.30;1.20;;;13.80;99.90;;;;;;4682178;30;20058;-82
2022/05/24 11:10:23;;;;;;;1.67;1.33;;;13.70;99.90;;;;;;4683090;30;20525;-83
2022/05/24 11:13:09;;;;;;;2.53;2.00;;;13.80;99.90;;;;;;4676815;30;20458;-82
2022/05/24 11:15:45;;;;;;;1.20;1.20;;;13.80;99.90;;;;;;4688956;30;20070;-83
2022/05/24 11:18:23;;;;;;;2.97;1.40;;;13.90;99.90;;;;;;4680326;30;20052;-82
2022/05/24 11:21:44;;;;;;;2.25;1.60;;;14.00;99.90;;;;;;4674195;30;20041;-82
2022/05/24 11:25:11;;;;;;;4.88;1.80;;;14.00;99.90;;;;;;4642711;30;20054;-82
2022/05/24 11:28:03;;;;;;;1.90;1.80;;;13.80;99.90;;;;;;4667251;30;20071;-82
2022/05/24 11:37:46;;;;;;;;;;;;;;;;;;;;;
2022/05/24 11:56:15;;;;;;;3.97;1.67;;;14.10;99.90;;;;;;4708263;30;20513;-82
2022/05/24 11:59:26;;;;;;;1.85;1.75;;;14.20;99.90;;;;;;4923681;24;20019;-85
2022/05/24 12:18:37;;;;;;;5.32;2.20;;;14.20;99.90;;;;;;4632184;30;20055;-83
2022/05/24 12:22:44;;;;;;;2.78;2.20;;;14.20;99.90;;;;;;4572887;31;20057;-82
2022/05/24 12:25:55;;;;;;;2.15;1.95;;;14.40;99.90;;;;;;4564173;31;20056;-86
2022/05/24 12:28:37;;;;;;;5.15;1.70;;;14.50;99.90;;;;;;4620228;31;20892;-85
2022/05/24 12:31:21;;;;;;;3.15;2.03;;;14.40;99.90;;;;;;4630566;30;20067;-86
2022/05/24 12:34:01;;;;;;;9.02;2.22;;;14.40;99.90;;;;;;4616934;31;20109;-84
2022/05/24 12:36:39;;;;;;;1.90;1.80;;;14.40;99.90;;;;;;4602257;30;20059;-86
2022/05/24 12:39:35;;;;;;;3.72;2.03;;;14.50;99.90;;;;;;4652736;30;20066;-86
2022/05/24 12:42:12;;;;;;;5.35;2.22;;;14.40;99.90;;;;;;4633174;30;20066;-86
2022/05/24 12:45:05;;;;;;;2.30;1.80;;;14.30;99.90;;;;;;4672740;30;20069;-86
2022/05/24 12:47:33;;;;;;;2.53;2.33;;;14.30;99.90;;;;;;4633140;30;20066;-85
2022/05/24 12:50:02;;;;;;;3.55;2.00;;;14.30;99.90;;;;;;4678275;30;20058;-83
2022/05/24 12:52:41;;;;;;;2.80;1.85;;;14.30;99.90;;;;;;4648907;30;20059;-85
2022/05/24 12:58:28;;;;;;;3.22;2.17;;;14.30;99.90;;;;;;4660969;30;20054;-85
2022/05/24 13:01:10;;;;;;;3.05;2.72;;;14.20;99.90;;;;;;4647741;30;20058;-84
2022/05/24 13:03:46;;;;;;;2.95;2.22;;;14.20;99.90;;;;;;4644401;30;20062;-84
2022/05/24 13:06:31;;;;;;;3.20;2.90;;;14.20;99.90;;;;;;4662782;30;20061;-86
2022/05/24 13:10:13;;;;;;;;;;;;;;;;;;;;;
2022/05/24 13:14:02;;;;;;;3.10;0.98;;;13.90;99.90;;;;;;4648427;30;20085;-87
2022/05/24 13:23:53;;;;;;;0.60;0.60;;;12.60;99.90;;;;;;4594357;31;20402;-90
2022/05/24 13:27:08;;;;;;;2.28;1.30;;;12.30;99.90;;;;;;4588203;30;20063;-87
2022/05/24 13:35:30;;;;;;;0.77;0.77;;;11.70;99.90;;;;;;4607565;31;20063;-88
2022/05/24 13:38:01;;;;;;;0.93;0.93;;;11.60;99.90;;;;;;4603305;30;20058;-86
2022/05/24 13:40:41;;;;;;;1.40;1.00;;;11.60;99.90;;;;;;4599345;31;20052;-88
2022/05/24 13:43:09;;;;;;;0.70;0.70;;;11.60;99.90;;;;;;4631134;30;20101;-86
2022/05/24 13:46:07;;;;;;;5.88;1.45;;;11.50;99.90;;;;;;4609461;31;20055;-88
2022/05/24 13:49:10;;;;;;;2.72;0.70;;;11.50;99.90;;;;;;4618153;30;20058;-86
2022/05/24 13:51:38;;;;;;;;;;;11.50;99.90;;;;;;4578068;30;20053;-85
2022/05/24 13:54:46;;;;;;;1.02;0.93;;;11.60;99.90;;;;;;4608838;30;19933;-86
2022/05/24 13:59:01;;;;;;;1.10;1.03;;;11.60;99.90;;;;;;4567066;31;20959;-86
2022/05/24 14:02:38;;;;;;;1.40;1.10;;;11.80;99.90;;;;;;4577345;31;20325;-87
2022/05/24 14:05:36;;;;;;;1.42;1.33;;;12.00;99.90;;;;;;4604952;30;20048;-86
2022/05/24 14:12:45;;;;;;;1.98;1.88;;;12.00;99.90;;;;;;4914337;24;20056;-83
2022/05/24 14:15:18;;;;;;;1.10;0.93;;;11.90;99.90;;;;;;4718906;30;20068;-82
2022/05/24 14:17:55;;;;;;;3.47;1.30;;;12.00;99.90;;;;;;4718458;30;20049;-82
2022/05/24 14:21:05;;;;;;;1.25;1.15;;;12.00;99.90;;;;;;4692638;29;20061;-85
2022/05/24 14:24:41;;;;;;;1.00;0.90;;;12.00;99.90;;;;;;4652741;30;20484;-83
2022/05/24 14:27:54;;;;;;;1.30;1.20;;;11.90;99.90;;;;;;4660438;30;20069;-83
2022/05/24 14:31:48;;;;;;;1.98;1.77;;;12.00;99.90;;;;;;4641450;30;20068;-83
2022/05/24 14:34:39;;;;;;;3.03;1.58;;;12.10;99.90;;;;;;4672605;30;20836;-82
2022/05/24 14:37:37;;;;;;;3.28;1.20;;;12.20;99.90;;;;;;4695085;30;20053;-81
2022/05/24 14:40:37;;;;;;;1.77;1.20;;;12.10;99.90;;;;;;4711789;30;20056;-86
2022/05/24 15:37:49;;;;;;;2.40;1.45;;;12.60;99.90;;;;;;497826;28;20486;-87
2022/05/24 15:40:41;;;;;;;3.10;2.83;;;12.60;99.90;;;;;;4677872;30;20055;-88
2022/05/24 15:43:16;;;;;;;2.30;1.85;;;12.70;99.90;;;;;;4679924;30;20056;-89
2022/05/24 15:45:57;;;;;;;2.45;2.25;;;12.80;99.90;;;;;;4674461;30;20490;-89
2022/05/24 15:49:11;;;;;;;2.58;2.38;;;12.80;99.90;;;;;;4671512;30;20052;-92
2022/05/24 15:55:09;;;;;;;2.65;2.47;;;12.80;99.90;;;;;;4670806;30;20056;-90
2022/05/24 15:57:41;;;;;;;3.40;2.65;;;12.90;99.90;;;;;;4697595;30;20053;-91
2022/05/24 16:00:16;;;;;;;3.47;3.17;;;12.90;99.90;;;;;;4687610;30;20061;-88
2022/05/24 16:02:54;;;;;;;2.55;2.22;;;12.90;99.90;;;;;;4699562;30;20072;-89
2022/05/24 16:11:05;;;;;;;3.72;2.00;;;13.00;99.90;;;;;;4693455;30;20375;-89
2022/05/24 16:13:36;;;;;;;2.53;2.30;;;13.10;99.90;;;;;;4701291;30;20053;-90
2022/05/24 16:16:06;;;;;;;5.90;2.72;;;13.00;99.90;;;;;;4687820;30;20135;-92
2022/05/24 16:18:36;;;;;;;2.07;1.93;;;13.10;99.90;;;;;;4686784;30;20045;-90
2022/05/24 16:21:19;;;;;;;2.58;2.38;;;13.00;99.90;;;;;;4693836;30;20518;-92
2022/05/24 16:23:49;;;;;;;3.17;2.88;;;13.00;99.90;;;;;;4679642;30;20057;-91
2022/05/24 16:26:17;;;;;;;3.78;2.58;;;12.90;99.90;;;;;;4676983;30;20490;-90
2022/05/24 16:28:54;;;;;;;5.25;2.15;;;13.00;99.90;;;;;;4697765;30;20045;-91
2022/05/24 16:31:39;;;;;;;3.55;2.42;;;13.00;99.90;;;;;;4688030;30;20116;-92
2022/05/24 16:34:09;;;;;;;;;;;13.00;99.90;;;;;;4676938;30;20050;-91
2022/05/24 16:36:37;;;;;;;2.80;2.03;;;13.00;99.90;;;;;;4660421;30;19943;-91
2022/05/24 16:39:06;;;;;;;2.33;2.15;;;13.00;99.90;;;;;;4687422;30;20892;-91
2022/05/24 16:41:35;;;;;;;3.40;3.10;;;12.90;99.90;;;;;;4693481;30;20042;-92
2022/05/24 16:44:04;;;;;;;2.97;2.55;;;13.00;99.90;;;;;;4688956;30;20479;-92
2022/05/24 16:46:38;;;;;;;2.85;2.63;;;13.00;99.90;;;;;;4669788;30;20064;-93
2022/05/24 16:49:12;;;;;;;3.50;2.75;;;13.00;99.90;;;;;;4684074;30;20577;-92
2022/05/24 16:51:43;;;;;;;2.38;2.17;;;13.10;99.90;;;;;;4670478;30;20060;-92
2022/05/24 16:59:45;;;;;;;3.50;1.83;;;13.00;99.90;;;;;;4684372;30;20057;-90
2022/05/24 17:02:15;;;;;;;3.10;2.33;;;12.80;99.90;;;;;;4672503;30;20068;-90
2022/05/24 17:04:44;;;;;;;1.70;1.60;;;12.60;99.90;;;;;;4664493;30;20053;-92
2022/05/24 17:07:12;;;;;;;2.85;1.83;;;12.60;99.90;;;;;;4684586;30;20069;-91
2022/05/24 17:09:40;;;;;;;1.50;1.40;;;12.60;99.90;;;;;;4683250;30;20590;-92
2022/05/24 17:12:11;;;;;;;1.63;1.52;;;12.50;99.90;;;;;;4693915;30;20053;-90
2022/05/24 17:14:40;;;;;;;2.58;2.38;;;12.50;99.90;;;;;;4686363;30;20425;-89
2022/05/24 17:17:08;;;;;;;3.25;3.00;;;12.40;99.90;;;;;;4686141;30;20042;-89
2022/05/24 17:19:37;;;;;;;3.92;2.80;;;12.50;99.90;;;;;;4678432;30;20406;-90
2022/05/24 17:22:05;;;;;;;2.03;1.92;;;12.40;99.90;;;;;;4671632;30;20722;-91
2022/05/24 17:24:36;;;;;;;1.58;1.48;;;12.40;99.90;;;;;;4682898;30;20394;-88
2022/05/24 17:27:09;;;;;;;1.98;1.88;;;12.30;99.90;;;;;;4687671;30;20060;-91
2022/05/24 17:29:39;;;;;;;15.35;2.72;;;12.30;99.90;;;;;;4662383;30;20049;-90
2022/05/24 17:32:24;;;;;;;2.38;2.15;;;12.20;99.90;;;;;;4708486;30;20577;-90
2022/05/24 17:34:52;;;;;;;2.65;1.38;;;12.20;99.90;;;;;;4684039;30;20053;-91
2022/05/24 17:37:19;;;;;;;2.47;2.00;;;12.20;99.90;;;;;;4683342;30;20052;-91
2022/05/24 17:39:51;;;;;;;2.65;2.20;;;12.20;99.90;;;;;;4681195;30;20530;-92
2022/05/24 17:42:21;;;;;;;5.40;1.80;;;12.20;99.90;;;;;;4683922;30;20514;-93
2022/05/24 17:44:49;;;;;;;2.22;1.70;;;12.10;99.90;;;;;;4653049;30;20415;-93
2022/05/24 17:47:19;;;;;;;1.83;1.58;;;12.10;99.90;;;;;;4682020;30;20534;-92
2022/05/24 17:49:49;;;;;;;3.65;2.17;;;12.10;99.90;;;;;;4669861;30;20068;-91
2022/05/24 17:52:21;;;;;;;3.35;2.05;;;12.10;99.90;;;;;;4682083;30;20054;-93
2022/05/24 17:55:01;;;;;;;4.07;2.97;;;12.10;99.90;;;;;;4668853;30;20057;-87
2022/05/24 17:58:11;;;;;;;1.98;1.88;;;12.10;99.90;;;;;;4656757;30;20058;-89
2022/05/24 18:06:37;;;;;;;2.45;2.25;;;12.10;99.90;;;;;;4675490;30;20609;-90
2022/05/24 18:09:23;;;;;;;2.72;2.15;;;12.10;99.90;;;;;;4661611;30;20490;-91
2022/05/24 18:15:28;;;;;;;2.88;2.45;;;12.20;99.90;;;;;;4595229;31;20576;-90
2022/05/24 18:18:27;;;;;;;6.55;2.15;;;12.20;99.90;;;;;;4598161;31;20409;-91
2022/05/24 18:35:04;;;;;;;2.38;1.98;;;12.00;99.90;;;;;;4683178;30;20053;-88
2022/05/24 18:37:32;;;;;;;6.88;2.45;;;12.00;99.90;;;;;;4687173;30;20076;-88
2022/05/24 18:40:00;;;;;;;2.63;2.00;;;12.00;99.90;;;;;;4717700;30;20076;-89
2022/05/24 18:42:28;;;;;;;2.22;2.13;;;12.00;99.90;;;;;;4716043;30;20057;-87
2022/05/24 18:44:55;;;;;;;6.10;3.22;;;11.90;99.90;;;;;;4686785;30;20052;-87
2022/05/24 18:47:26;;;;;;;3.90;2.05;;;11.90;99.90;;;;;;4687659;30;20057;-86
2022/05/24 18:49:54;;;;;;;2.40;2.20;;;11.90;99.90;;;;;;4716981;30;20052;-86
2022/05/24 18:52:22;;;;;;;2.65;2.45;;;11.90;99.90;;;;;;4717367;30;20532;-86
2022/05/24 18:54:50;;;;;;;2.85;2.65;;;11.90;99.90;;;;;;4702126;30;20406;-86
2022/05/24 18:57:40;;;;;;;1.73;1.63;;;11.90;99.90;;;;;;4700482;30;20049;-85
2022/05/24 19:00:09;;;;;;;2.13;1.97;;;11.90;99.90;;;;;;4716939;30;20053;-86